Terminal Aerodrome Forecast
Issued by NWS Blacksburg, VA

Current Version | Previous Version | Graphics & Text | Print | Product List | Glossary Off
Versions: 1 2 3 4 5 6 7 8 9 10 11 12 13 14 15 16 17 18 19 20 21 22 23 24 25 26 27 28

000
FTUS41 KRNK 241511 AAA
TAFBLF
TAF AMD
KBLF 241511Z 2415/2512 23016G26KT P6SM BKN035
     FM241700 22018G33KT P6SM SCT035
     FM250300 26007KT P6SM BKN040
     FM250900 28008KT P6SM BKN025=

USA.gov is the U.S. government's official web portal to all federal, state and local government web resources and services.